Current Observation

FTSO31 AGGG 210509
TAF AGGH 210509Z 2106/2206 27012KT 9999 –SHRA FEW016 BKN110
PROB40 INTER 2106/2112 5000 TSSH SCT016 FEW017CB BKN025
T 27 25 25 24 Q 1008 1010 1011 1009=
 
TAF AGGM 210509Z 2106/2206 27010KT 9999 -SHRA SCT016 SCT028 OVC100
INTER 2106/2112 3000 TSRA SCT009 FEW016CB BKN026
Q 1010 1012 1013 1011=

TAF AGGN 210509Z 2106/2206 27010KT 9999 -SHRA SCT016 SCT028 OVC100
INTER 2106/2112 3000 TSRA SCT009 FEW016CB BKN026
Q 1010 1012 1013 1011=

_______________________________________________________

TAF

Is a statement of meteorological conditions expected for the specified period of time in the airspace within 5 nautical miles of the aerodrome reference point.


 

Last modified on Tuesday, 21 February 2017 16:16

Weather Outlook

Support and Docs

Modern Design
Go to top